Time;durP1;ratioP1;P1;durP2;ratioP2;P2;SDS_P1;SDS_P2;PMS_P1;PMS_P2;Temp;Humidity;BMP_temperature;BMP_pressure;BME280_temperature;BME280_humidity;BME280_pressure;Samples;Min_cycle;Max_cycle;Signal;HPM_P1;HPM_P2
2022/10/10 00:01:13;;;;;;;;;;;8.60;99.90;;;;;;5063068;27;20052;-69
2022/10/10 00:03:39;;;;;;;6.40;2.03;;;8.70;99.90;;;;;;5057445;28;20419;-68
2022/10/10 00:06:06;;;;;;;3.33;1.58;;;8.70;99.90;;;;;;5060637;28;20450;-69
2022/10/10 00:08:31;;;;;;;6.22;1.80;;;8.90;99.90;;;;;;5067450;28;20120;-69
2022/10/10 00:10:57;;;;;;;;;;;8.80;99.90;;;;;;5096831;28;20132;-69
2022/10/10 00:13:23;;;;;;;4.35;2.42;;;8.90;99.90;;;;;;5064918;28;19923;-69
2022/10/10 00:15:48;;;;;;;;;;;8.90;99.90;;;;;;5059885;28;20068;-69
2022/10/10 00:18:15;;;;;;;8.98;2.13;;;9.00;99.90;;;;;;5052575;28;20012;-69
2022/10/10 00:20:40;;;;;;;7.68;2.00;;;9.10;99.90;;;;;;5046494;28;20036;-71
2022/10/10 00:23:06;;;;;;;;;;;9.20;99.90;;;;;;5057230;28;20276;-68
2022/10/10 00:25:32;;;;;;;6.45;2.33;;;9.30;99.90;;;;;;5056361;28;19977;-68
2022/10/10 00:28:02;;;;;;;;;;;9.40;99.90;;;;;;5060704;28;20041;-69
2022/10/10 00:30:28;;;;;;;6.70;2.00;;;9.50;99.90;;;;;;5057056;28;19917;-71
2022/10/10 00:32:53;;;;;;;;;;;9.50;99.90;;;;;;5052845;28;20133;-69
2022/10/10 00:35:19;;;;;;;5.28;2.13;;;9.40;99.90;;;;;;5059606;28;19920;-70
2022/10/10 00:37:44;;;;;;;;;;;9.40;99.90;;;;;;5080279;28;20094;-69
2022/10/10 00:40:11;;;;;;;5.65;2.30;;;9.30;99.90;;;;;;5060220;28;19927;-69
2022/10/10 00:42:36;;;;;;;4.32;1.98;;;9.20;99.90;;;;;;5047735;28;20536;-68
2022/10/10 00:45:21;;;;;;;;;;;9.20;99.90;;;;;;5046233;28;20072;-69
2022/10/10 00:47:49;;;;;;;5.00;1.92;;;9.20;99.90;;;;;;5056727;28;19927;-69
2022/10/10 00:50:16;;;;;;;7.65;1.92;;;9.20;99.90;;;;;;5056089;28;20092;-70
2022/10/10 00:52:42;;;;;;;5.85;2.15;;;9.20;99.90;;;;;;5052462;28;20102;-70
2022/10/10 00:55:07;;;;;;;;;;;9.20;99.90;;;;;;5057260;28;20572;-70
2022/10/10 00:57:33;;;;;;;8.88;2.10;;;9.10;99.90;;;;;;5048920;28;19921;-68
2022/10/10 00:59:59;;;;;;;;;;;9.10;99.90;;;;;;5055648;28;20032;-69
2022/10/10 01:02:25;;;;;;;8.85;2.25;;;9.10;99.90;;;;;;5045133;28;19951;-68
2022/10/10 01:04:50;;;;;;;11.02;2.42;;;9.10;99.90;;;;;;5043027;28;20037;-68
2022/10/10 01:07:24;;;;;;;;;;;9.20;99.90;;;;;;5044257;28;20107;-70
2022/10/10 01:09:52;;;;;;;7.75;2.05;;;9.30;99.90;;;;;;5044268;28;19920;-71
2022/10/10 01:12:51;;;;;;;9.65;2.33;;;9.30;99.90;;;;;;5044802;28;20509;-71
2022/10/10 01:15:28;;;;;;;4.97;2.20;;;9.40;99.90;;;;;;5029306;28;20120;-68
2022/10/10 01:18:06;;;;;;;5.43;2.08;;;9.40;99.90;;;;;;5034513;28;20048;-71
2022/10/10 01:20:44;;;;;;;4.22;2.13;;;9.50;99.90;;;;;;5046227;28;20041;-68
2022/10/10 01:23:27;;;;;;;5.05;2.60;;;9.50;99.90;;;;;;5045973;28;20036;-69
2022/10/10 01:26:32;;;;;;;8.38;2.63;;;9.60;99.90;;;;;;5043427;28;20033;-70
2022/10/10 01:29:25;;;;;;;6.15;2.30;;;9.50;99.90;;;;;;5022899;28;20049;-68
2022/10/10 01:31:54;;;;;;;6.40;2.95;;;9.50;99.90;;;;;;5038936;28;20099;-70
2022/10/10 01:34:54;;;;;;;6.30;2.05;;;9.50;99.90;;;;;;5046711;28;20090;-69
2022/10/10 01:37:33;;;;;;;5.50;2.00;;;9.40;99.90;;;;;;5040181;28;20072;-69
2022/10/10 01:40:00;;;;;;;4.72;2.30;;;9.40;99.90;;;;;;5043905;28;20127;-69
2022/10/10 01:42:58;;;;;;;6.28;2.30;;;9.40;99.90;;;;;;5038980;28;20065;-68
2022/10/10 01:45:24;;;;;;;9.50;2.10;;;9.40;99.90;;;;;;5027384;28;20750;-68
2022/10/10 01:47:52;;;;;;;6.63;2.30;;;9.40;99.90;;;;;;5042555;28;20132;-68
2022/10/10 01:50:22;;;;;;;6.18;2.33;;;9.40;99.90;;;;;;5045249;28;20033;-68
2022/10/10 01:52:53;;;;;;;5.88;2.10;;;9.30;99.90;;;;;;5044502;28;20053;-69
2022/10/10 01:55:29;;;;;;;10.20;2.40;;;9.30;99.90;;;;;;5057673;28;20028;-68
2022/10/10 01:58:02;;;;;;;8.63;2.63;;;9.10;99.90;;;;;;5045399;28;20045;-69
2022/10/10 02:00:35;;;;;;;7.28;2.00;;;9.10;99.90;;;;;;5043743;28;20052;-68
2022/10/10 02:03:13;;;;;;;5.50;2.13;;;9.10;99.90;;;;;;5046737;28;20616;-68
2022/10/10 02:05:45;;;;;;;10.10;2.60;;;9.00;99.90;;;;;;5049364;28;20040;-68
2022/10/10 02:08:16;;;;;;;6.70;2.17;;;9.00;99.90;;;;;;5043902;28;20033;-68
2022/10/10 02:11:04;;;;;;;9.90;2.35;;;9.00;99.90;;;;;;5043382;28;20041;-68
2022/10/10 02:13:43;;;;;;;4.75;2.60;;;9.00;99.90;;;;;;5041868;28;20440;-68
2022/10/10 02:16:33;;;;;;;7.47;2.38;;;9.00;99.90;;;;;;5042723;28;20719;-69
2022/10/10 02:19:01;;;;;;;5.57;2.55;;;9.00;99.90;;;;;;5042904;28;20045;-69
2022/10/10 02:21:28;;;;;;;4.47;2.33;;;9.10;99.90;;;;;;5043734;28;20098;-68
2022/10/10 02:23:58;;;;;;;9.10;2.53;;;9.10;99.90;;;;;;5047362;28;20041;-67
2022/10/10 02:26:26;;;;;;;8.48;2.85;;;9.20;99.90;;;;;;5041391;28;20045;-68
2022/10/10 02:29:13;;;;;;;6.05;2.25;;;9.30;99.90;;;;;;5049041;28;20128;-69
2022/10/10 02:31:46;;;;;;;9.07;2.65;;;9.20;99.90;;;;;;5042669;28;20037;-69
2022/10/10 02:34:16;;;;;;;6.43;2.20;;;9.30;99.90;;;;;;5038876;28;20041;-68
2022/10/10 02:36:47;;;;;;;6.95;2.45;;;9.20;99.90;;;;;;5043762;28;20037;-69
2022/10/10 02:39:14;;;;;;;9.55;2.58;;;9.20;99.90;;;;;;5043849;28;20063;-69
2022/10/10 02:41:43;;;;;;;3.08;2.00;;;9.10;99.90;;;;;;5042266;28;20041;-68
2022/10/10 02:44:10;;;;;;;13.50;2.40;;;9.00;99.90;;;;;;5037345;28;20044;-69
2022/10/10 02:46:36;;;;;;;7.32;2.67;;;8.90;99.90;;;;;;5041095;28;20053;-68
2022/10/10 02:49:01;;;;;;;;;;;8.90;99.90;;;;;;5044548;28;20090;-69
2022/10/10 02:51:27;;;;;;;9.48;2.53;;;8.90;99.90;;;;;;5044285;28;19923;-69
2022/10/10 02:53:53;;;;;;;;;;;8.80;99.90;;;;;;5048268;28;20083;-69
2022/10/10 02:56:18;;;;;;;6.97;2.40;;;8.80;99.90;;;;;;5044078;28;20343;-68
2022/10/10 02:58:44;;;;;;;;;;;8.80;99.90;;;;;;5044442;28;20032;-68
2022/10/10 03:01:10;;;;;;;4.88;2.25;;;8.80;99.90;;;;;;5041849;28;20575;-69
2022/10/10 03:03:35;;;;;;;;;;;8.80;99.90;;;;;;5042139;28;20037;-69
2022/10/10 03:06:01;;;;;;;6.53;2.10;;;8.80;99.90;;;;;;5038449;28;19944;-69
2022/10/10 03:08:27;;;;;;;6.68;2.53;;;8.80;99.90;;;;;;5046597;28;20079;-69
2022/10/10 03:10:56;;;;;;;;;;;8.70;99.90;;;;;;5075726;28;20136;-69
2022/10/10 03:13:22;;;;;;;6.57;2.10;;;8.70;99.90;;;;;;5042205;28;19920;-69
2022/10/10 03:15:48;;;;;;;5.40;2.42;;;8.70;99.90;;;;;;5042542;28;20596;-69
2022/10/10 03:18:14;;;;;;;;;;;8.70;99.90;;;;;;5042076;28;20044;-69
2022/10/10 03:20:39;;;;;;;6.40;2.53;;;8.60;99.90;;;;;;5044089;28;20277;-69
2022/10/10 03:23:05;;;;;;;;;;;8.60;99.90;;;;;;5044148;28;20064;-68
2022/10/10 03:25:33;;;;;;;10.52;2.35;;;8.60;99.90;;;;;;5045231;28;19920;-68
2022/10/10 03:27:59;;;;;;;5.68;2.28;;;8.50;99.90;;;;;;5041687;28;20037;-69
2022/10/10 03:30:25;;;;;;;;;;;8.40;99.90;;;;;;5044586;28;20044;-70
2022/10/10 03:32:50;;;;;;;8.23;2.97;;;8.40;99.90;;;;;;5072104;28;19928;-69
2022/10/10 03:35:16;;;;;;;;;;;8.40;99.90;;;;;;5037989;28;20103;-68
2022/10/10 03:37:41;;;;;;;5.03;1.92;;;8.30;99.90;;;;;;5041919;28;19999;-68
2022/10/10 03:40:07;;;;;;;;;;;8.30;99.90;;;;;;5039498;28;20436;-69
2022/10/10 03:42:33;;;;;;;10.20;2.45;;;8.20;99.90;;;;;;5038775;28;19920;-69
2022/10/10 03:44:59;;;;;;;;;;;8.10;99.90;;;;;;5043319;28;20048;-68
2022/10/10 03:47:24;;;;;;;5.30;2.47;;;8.10;99.90;;;;;;5045640;28;19983;-69
2022/10/10 03:49:50;;;;;;;;;;;8.00;99.90;;;;;;5045411;28;20051;-69
2022/10/10 03:52:15;;;;;;;9.68;2.63;;;8.00;99.90;;;;;;5044677;28;20027;-69
2022/10/10 03:54:41;;;;;;;5.22;2.40;;;8.00;99.90;;;;;;5049384;28;20033;-69
2022/10/10 03:57:06;;;;;;;;;;;8.00;99.90;;;;;;5044087;28;20053;-70
2022/10/10 03:59:32;;;;;;;11.10;2.60;;;7.90;99.90;;;;;;5048067;28;19916;-69
2022/10/10 04:01:57;;;;;;;5.25;2.25;;;7.80;99.90;;;;;;5037306;28;20038;-69
2022/10/10 04:04:24;;;;;;;;;;;7.80;99.90;;;;;;5032893;28;20041;-68
2022/10/10 04:06:49;;;;;;;11.40;2.33;;;7.80;99.90;;;;;;5048075;28;20437;-68
2022/10/10 04:09:15;;;;;;;;;;;7.70;99.90;;;;;;5051298;28;20532;-69
2022/10/10 04:11:42;;;;;;;4.10;2.50;;;7.70;99.90;;;;;;5048114;28;19963;-70
2022/10/10 04:14:07;;;;;;;6.50;2.58;;;7.70;99.90;;;;;;5050082;28;20029;-70
2022/10/10 04:16:33;;;;;;;;;;;7.70;99.90;;;;;;5045208;28;20132;-68
2022/10/10 04:18:58;;;;;;;8.38;2.65;;;7.70;99.90;;;;;;5044653;28;20653;-70
2022/10/10 04:21:24;;;;;;;;;;;7.70;99.90;;;;;;5045948;28;20048;-70
2022/10/10 04:23:50;;;;;;;8.02;3.00;;;7.70;99.90;;;;;;5050427;28;19933;-69
2022/10/10 04:26:15;;;;;;;;;;;7.70;99.90;;;;;;5045201;28;20039;-69
2022/10/10 04:28:41;;;;;;;6.13;2.95;;;7.70;99.90;;;;;;5047991;28;20187;-68
2022/10/10 04:31:07;;;;;;;;;;;7.70;99.90;;;;;;5043695;28;20037;-70
2022/10/10 04:33:32;;;;;;;7.53;2.65;;;7.80;99.90;;;;;;5041195;28;19917;-68
2022/10/10 04:35:58;;;;;;;6.57;3.00;;;7.80;99.90;;;;;;5047157;28;20446;-69
2022/10/10 04:38:23;;;;;;;;;;;7.80;99.90;;;;;;5043731;28;20043;-69
2022/10/10 04:40:49;;;;;;;5.80;2.80;;;7.80;99.90;;;;;;5077680;28;19926;-70
2022/10/10 04:43:15;;;;;;;;;;;7.80;99.90;;;;;;5042557;28;20090;-68
2022/10/10 04:45:41;;;;;;;4.80;2.83;;;7.80;99.90;;;;;;5046836;28;19921;-68
2022/10/10 04:48:06;;;;;;;;;;;7.80;99.90;;;;;;5046914;28;20036;-64
2022/10/10 04:50:32;;;;;;;6.20;2.45;;;7.80;99.90;;;;;;5044726;28;19923;-64
2022/10/10 04:52:58;;;;;;;;;;;7.80;99.90;;;;;;5043256;28;20049;-64
2022/10/10 04:55:23;;;;;;;8.13;3.63;;;7.70;99.90;;;;;;5053449;28;20400;-63
2022/10/10 04:57:49;;;;;;;;;;;7.70;99.90;;;;;;5042780;28;20075;-64
2022/10/10 05:00:15;;;;;;;4.80;2.90;;;7.70;99.90;;;;;;5052688;28;19923;-66
2022/10/10 05:02:40;;;;;;;13.88;3.95;;;7.70;99.90;;;;;;5059904;28;20408;-65
2022/10/10 05:05:06;;;;;;;5.88;2.85;;;7.60;99.90;;;;;;5094521;28;20071;-66
2022/10/10 05:07:32;;;;;;;11.50;3.30;;;7.60;99.90;;;;;;5062234;28;20265;-64
2022/10/10 05:09:57;;;;;;;;;;;7.60;99.90;;;;;;5065318;28;20745;-65
2022/10/10 05:12:23;;;;;;;12.60;4.20;;;7.50;99.90;;;;;;5062521;28;19916;-63
2022/10/10 05:14:49;;;;;;;8.23;3.40;;;7.50;99.90;;;;;;5064493;28;20158;-65
2022/10/10 05:17:15;;;;;;;;;;;7.50;99.90;;;;;;5062943;28;20048;-66
2022/10/10 05:19:40;;;;;;;5.95;3.08;;;7.50;99.90;;;;;;5062678;28;19920;-66
2022/10/10 05:22:06;;;;;;;6.93;2.83;;;7.40;99.90;;;;;;5064429;28;20510;-67
2022/10/10 05:24:31;;;;;;;;;;;7.40;99.90;;;;;;5065471;28;20036;-62
2022/10/10 05:26:58;;;;;;;5.90;2.72;;;7.40;99.90;;;;;;5062297;28;20003;-62
2022/10/10 05:29:24;;;;;;;7.80;2.92;;;7.50;99.90;;;;;;5066681;28;20040;-63
2022/10/10 05:31:49;;;;;;;;;;;7.40;99.90;;;;;;5064887;28;20978;-63
2022/10/10 05:34:15;;;;;;;8.30;3.08;;;7.50;99.90;;;;;;5066242;28;20423;-63
2022/10/10 05:36:41;;;;;;;6.90;3.22;;;7.50;99.90;;;;;;5063125;28;20051;-63
2022/10/10 05:39:07;;;;;;;;;;;7.60;99.90;;;;;;5066895;28;20052;-64
2022/10/10 05:41:32;;;;;;;11.10;3.92;;;7.60;99.90;;;;;;5070963;28;19916;-65
2022/10/10 05:43:58;;;;;;;;;;;7.70;99.90;;;;;;5069799;28;20044;-67
2022/10/10 05:46:25;;;;;;;5.82;2.85;;;7.70;99.90;;;;;;5066298;28;20423;-64
2022/10/10 05:48:52;;;;;;;6.38;3.00;;;7.70;99.90;;;;;;5062993;28;20052;-64
2022/10/10 05:51:18;;;;;;;12.75;3.45;;;7.70;99.90;;;;;;5063852;28;20037;-66
2022/10/10 05:53:45;;;;;;;11.43;3.20;;;7.70;99.90;;;;;;5061129;28;20036;-65
2022/10/10 05:56:11;;;;;;;10.45;3.70;;;7.60;99.90;;;;;;5055235;28;20044;-65
2022/10/10 05:58:37;;;;;;;;;;;7.50;99.90;;;;;;5062525;28;20033;-66
2022/10/10 06:01:04;;;;;;;6.80;3.20;;;7.50;99.90;;;;;;5057692;28;20411;-67
2022/10/10 06:03:31;;;;;;;7.65;3.05;;;7.40;99.90;;;;;;5057277;28;20683;-66
2022/10/10 06:05:56;;;;;;;7.60;3.35;;;7.40;99.90;;;;;;5059548;28;20041;-66
2022/10/10 06:08:22;;;;;;;;;;;7.50;99.90;;;;;;5062979;28;20044;-66
2022/10/10 06:10:47;;;;;;;10.77;3.95;;;7.50;99.90;;;;;;5060619;28;20118;-66
2022/10/10 06:13:15;;;;;;;;;;;7.50;99.90;;;;;;5062420;28;20522;-67
2022/10/10 06:15:41;;;;;;;8.88;2.80;;;7.50;99.90;;;;;;5061990;28;19920;-67
2022/10/10 06:18:07;;;;;;;13.05;3.10;;;7.50;99.90;;;;;;5062680;28;20512;-66
2022/10/10 06:20:33;;;;;;;;;;;7.60;99.90;;;;;;5065750;28;20040;-67
2022/10/10 06:22:59;;;;;;;9.57;2.83;;;7.70;99.90;;;;;;5061429;28;20670;-66
2022/10/10 06:25:24;;;;;;;;;;;7.70;99.90;;;;;;5065441;28;20071;-66
2022/10/10 06:27:50;;;;;;;10.90;3.80;;;7.80;99.90;;;;;;5063081;28;19920;-67
2022/10/10 06:30:16;;;;;;;;;;;7.90;99.90;;;;;;5063127;28;20166;-66
2022/10/10 06:32:41;;;;;;;15.55;4.65;;;8.00;99.90;;;;;;5062174;28;19917;-67
2022/10/10 06:35:07;;;;;;;;;;;8.00;99.90;;;;;;5063170;28;20500;-66
2022/10/10 06:37:33;;;;;;;13.70;3.75;;;8.20;99.90;;;;;;5059238;28;19924;-67
2022/10/10 06:39:58;;;;;;;;;;;8.40;99.90;;;;;;5064068;28;20086;-66
2022/10/10 06:42:24;;;;;;;10.20;3.05;;;8.50;99.90;;;;;;5061780;28;19916;-68
2022/10/10 06:44:49;;;;;;;;;;;8.60;99.90;;;;;;5064722;28;20047;-66
2022/10/10 06:47:15;;;;;;;11.75;3.60;;;8.70;99.90;;;;;;5060741;28;19924;-66
2022/10/10 06:49:41;;;;;;;8.68;3.78;;;8.80;99.90;;;;;;5063759;28;20055;-67
2022/10/10 06:52:07;;;;;;;;;;;8.70;99.90;;;;;;5059794;28;20028;-66
2022/10/10 06:54:32;;;;;;;9.23;3.60;;;8.60;99.90;;;;;;5064092;28;19924;-66
2022/10/10 06:56:58;;;;;;;11.60;3.45;;;8.60;99.90;;;;;;5061167;28;20552;-66
2022/10/10 06:59:23;;;;;;;;;;;8.50;99.90;;;;;;5064534;28;20050;-66
2022/10/10 07:01:49;;;;;;;8.68;4.18;;;8.60;99.90;;;;;;5062047;28;19931;-65
2022/10/10 07:04:14;;;;;;;;;;;8.60;99.90;;;;;;5065065;28;20086;-66
2022/10/10 07:06:40;;;;;;;12.40;3.30;;;8.60;99.90;;;;;;5063187;28;19920;-65
2022/10/10 07:09:06;;;;;;;7.25;2.70;;;8.70;99.90;;;;;;5061525;28;20084;-66
2022/10/10 07:11:32;;;;;;;6.45;3.63;;;8.70;99.90;;;;;;5053437;28;20036;-65
2022/10/10 07:13:57;;;;;;;;;;;8.80;99.90;;;;;;5075285;28;20515;-67
2022/10/10 07:16:23;;;;;;;7.78;3.08;;;8.90;99.90;;;;;;5058114;28;19917;-68
2022/10/10 07:18:48;;;;;;;;;;;8.90;99.90;;;;;;5061882;28;20047;-66
2022/10/10 07:21:14;;;;;;;5.53;2.92;;;9.00;99.90;;;;;;5060630;28;19939;-65
2022/10/10 07:23:40;;;;;;;;;;;9.00;99.90;;;;;;5063732;28;20048;-64
2022/10/10 07:26:12;;;;;;;6.85;2.78;;;9.10;99.90;;;;;;5086619;28;19925;-65
2022/10/10 07:28:38;;;;;;;5.70;2.72;;;9.10;99.90;;;;;;5065267;28;20036;-64
2022/10/10 07:31:05;;;;;;;;;;;9.20;99.90;;;;;;5066319;28;20039;-63
2022/10/10 07:33:42;;;;;;;12.70;3.03;;;9.20;99.90;;;;;;5064983;28;19920;-64
2022/10/10 07:36:08;;;;;;;6.03;2.85;;;9.30;99.90;;;;;;5061357;28;20044;-64
2022/10/10 07:38:35;;;;;;;;;;;9.30;99.90;;;;;;5063377;28;20036;-66
2022/10/10 07:41:07;;;;;;;6.13;3.00;;;9.30;99.90;;;;;;5065587;28;20657;-67
2022/10/10 07:43:33;;;;;;;10.60;3.05;;;9.40;99.90;;;;;;5058717;28;20464;-66
2022/10/10 07:45:59;;;;;;;;;;;9.60;99.90;;;;;;5064819;28;20037;-66
2022/10/10 07:48:24;;;;;;;8.02;2.80;;;9.80;99.90;;;;;;5066376;28;20034;-68
2022/10/10 07:50:50;;;;;;;;;;;10.20;99.90;;;;;;5069850;28;20127;-66
2022/10/10 07:53:16;;;;;;;5.18;3.10;;;10.30;99.90;;;;;;5060646;28;20356;-68
2022/10/10 07:55:41;;;;;;;;;;;10.40;99.90;;;;;;5060546;28;20094;-67
2022/10/10 07:58:09;;;;;;;9.30;2.35;;;10.60;99.90;;;;;;5066328;28;20003;-67
2022/10/10 08:00:36;;;;;;;15.88;2.92;;;10.80;99.90;;;;;;5067270;28;22170;-67
2022/10/10 08:03:01;;;;;;;16.88;3.35;;;11.10;99.90;;;;;;5066131;28;20063;-67
2022/10/10 08:05:28;;;;;;;;;;;11.30;99.90;;;;;;5066160;28;20380;-67
2022/10/10 08:07:53;;;;;;;11.18;3.10;;;11.50;99.90;;;;;;5064701;28;19917;-67
2022/10/10 08:10:19;;;;;;;;;;;11.60;99.90;;;;;;5067471;28;20047;-68
2022/10/10 08:12:45;;;;;;;13.10;2.85;;;11.80;99.90;;;;;;5063389;28;19920;-67
2022/10/10 08:15:10;;;;;;;;;;;11.90;99.90;;;;;;5068544;28;20121;-67
2022/10/10 08:17:36;;;;;;;10.90;2.65;;;12.00;99.90;;;;;;5063538;28;20453;-67
2022/10/10 08:20:02;;;;;;;;;;;12.10;99.90;;;;;;5067078;28;20094;-68
2022/10/10 08:22:28;;;;;;;7.90;2.78;;;12.30;99.90;;;;;;5064039;28;19916;-67
2022/10/10 08:24:54;;;;;;;;;;;12.40;99.90;;;;;;5067099;28;20496;-67
2022/10/10 08:27:19;;;;;;;11.32;2.75;;;12.50;99.90;;;;;;5062604;28;19924;-67
2022/10/10 08:29:45;;;;;;;;;;;12.60;99.90;;;;;;5067167;28;20045;-68
2022/10/10 08:32:11;;;;;;;13.40;3.35;;;12.70;99.90;;;;;;5062436;28;20003;-67
2022/10/10 08:34:36;;;;;;;;;;;12.80;99.90;;;;;;5062770;28;20184;-66
2022/10/10 08:37:02;;;;;;;14.30;2.40;;;13.00;99.90;;;;;;5059718;28;20381;-67
2022/10/10 08:39:28;;;;;;;;;;;13.00;99.90;;;;;;5068118;28;20036;-69
2022/10/10 08:41:59;;;;;;;7.82;2.15;;;13.10;99.90;;;;;;5062516;28;19920;-68
2022/10/10 08:44:45;;;;;;;7.45;2.58;;;13.20;99.90;;;;;;5067733;28;20045;-66
2022/10/10 08:47:19;;;;;;;9.55;2.90;;;13.40;99.90;;;;;;5063048;28;20681;-67
2022/10/10 08:49:56;;;;;;;9.60;2.08;;;13.60;99.90;;;;;;5068098;28;20386;-67
2022/10/10 08:52:42;;;;;;;10.50;2.83;;;13.70;99.90;;;;;;5064866;28;20068;-67
2022/10/10 08:55:32;;;;;;;11.75;2.83;;;13.90;99.90;;;;;;5064850;28;20044;-67
2022/10/10 08:58:09;;;;;;;20.55;2.88;;;14.10;99.90;;;;;;5064227;28;20040;-66
2022/10/10 09:00:40;;;;;;;16.83;2.95;;;14.20;99.90;;;;;;5065522;28;20122;-66
2022/10/10 09:03:37;;;;;;;13.20;2.78;;;14.40;99.90;;;;;;5058045;28;20436;-67
2022/10/10 09:06:27;;;;;;;10.90;2.15;;;14.50;99.90;;;;;;5040617;28;20540;-68
2022/10/10 09:09:20;;;;;;;8.18;2.28;;;14.60;99.90;;;;;;5047120;28;20033;-66
2022/10/10 09:11:52;;;;;;;13.32;2.80;;;14.80;99.90;;;;;;5042146;28;20033;-66
2022/10/10 09:14:43;;;;;;;13.98;2.03;;;14.80;99.90;;;;;;5044595;28;20064;-68
2022/10/10 09:17:33;;;;;;;10.55;2.53;;;14.90;99.90;;;;;;5044591;28;20044;-66
2022/10/10 09:20:26;;;;;;;17.70;4.22;;;15.00;99.90;;;;;;5049452;28;20413;-68
2022/10/10 09:23:01;;;;;;;10.90;1.92;;;15.10;99.90;;;;;;5040402;28;20056;-67
2022/10/10 09:25:44;;;;;;;12.73;2.28;;;15.30;99.90;;;;;;5044912;28;20072;-67
2022/10/10 09:28:34;;;;;;;16.40;2.33;;;15.40;99.90;;;;;;5052671;28;20055;-68
2022/10/10 09:31:01;;;;;;;14.77;2.45;;;15.50;99.90;;;;;;5049970;28;20087;-68
2022/10/10 09:33:47;;;;;;;8.90;1.83;;;15.70;99.90;;;;;;5043376;28;20044;-68
2022/10/10 09:36:18;;;;;;;7.47;2.25;;;15.80;99.90;;;;;;5034916;28;20390;-69
2022/10/10 09:38:50;;;;;;;14.07;3.17;;;15.90;99.90;;;;;;5042248;28;20778;-68
2022/10/10 09:41:35;;;;;;;11.90;2.10;;;16.00;99.80;;;;;;5045624;28;20044;-68
2022/10/10 09:44:06;;;;;;;12.85;2.78;;;16.10;99.80;;;;;;5044710;28;20168;-68
2022/10/10 09:46:31;;;;;;;16.92;3.20;;;16.20;98.70;;;;;;5044444;28;20049;-69
2022/10/10 09:48:57;;;;;;;;;;;16.10;98.00;;;;;;5076726;28;20056;-68
2022/10/10 09:51:23;;;;;;;14.15;2.50;;;16.10;97.50;;;;;;5072728;28;19970;-68
2022/10/10 09:53:48;;;;;;;;;;;16.20;98.30;;;;;;5044149;28;20120;-68
2022/10/10 09:56:30;;;;;;;13.98;2.38;;;16.20;98.20;;;;;;5043860;28;20384;-68
2022/10/10 09:58:56;;;;;;;15.07;2.67;;;16.30;97.40;;;;;;5035680;28;20042;-69
2022/10/10 10:01:27;;;;;;;;;;;16.20;97.10;;;;;;5042120;28;20052;-70
2022/10/10 10:04:17;;;;;;;25.17;2.75;;;16.20;96.80;;;;;;5040958;28;19917;-70
2022/10/10 10:06:47;;;;;;;22.50;3.05;;;16.30;97.30;;;;;;5039664;28;20041;-68
2022/10/10 10:09:19;;;;;;;13.07;2.40;;;16.40;97.50;;;;;;5037698;28;20083;-69
2022/10/10 10:11:47;;;;;;;13.93;2.42;;;16.50;96.70;;;;;;5033443;28;20551;-68
2022/10/10 10:14:33;;;;;;;17.63;2.97;;;16.60;95.60;;;;;;5035018;28;20037;-69
2022/10/10 10:17:15;;;;;;;18.38;2.60;;;16.50;95.80;;;;;;5036511;28;20052;-70
2022/10/10 10:19:46;;;;;;;14.52;2.50;;;16.60;96.10;;;;;;5039731;28;20041;-69
2022/10/10 10:22:31;;;;;;;13.68;2.50;;;16.50;96.30;;;;;;5032779;28;20083;-68
2022/10/10 10:24:58;;;;;;;12.43;2.85;;;16.60;96.30;;;;;;5042350;28;20028;-69
2022/10/10 10:27:27;;;;;;;19.77;2.95;;;16.60;96.30;;;;;;5036588;28;20721;-68
2022/10/10 10:29:55;;;;;;;21.08;2.92;;;16.60;95.90;;;;;;5038948;28;20037;-69
2022/10/10 10:32:45;;;;;;;15.48;2.95;;;16.50;96.20;;;;;;5036233;28;20049;-68
2022/10/10 10:35:19;;;;;;;26.42;3.03;;;16.40;97.00;;;;;;5043511;28;20036;-69
2022/10/10 10:37:59;;;;;;;21.95;2.97;;;16.40;96.50;;;;;;5039382;28;20059;-68
2022/10/10 10:40:31;;;;;;;13.65;3.15;;;16.60;96.60;;;;;;5038740;28;20029;-68
2022/10/10 10:43:02;;;;;;;14.88;2.90;;;16.70;96.60;;;;;;5040064;28;20033;-68
2022/10/10 10:45:59;;;;;;;12.05;2.35;;;16.80;96.60;;;;;;5032183;28;20099;-68
2022/10/10 10:48:43;;;;;;;15.55;2.92;;;17.10;96.60;;;;;;5032489;28;20413;-68
2022/10/10 10:51:29;;;;;;;16.55;2.63;;;17.10;95.30;;;;;;5036768;28;20044;-69
2022/10/10 10:54:06;;;;;;;13.02;2.13;;;17.10;94.50;;;;;;5039409;28;20116;-69
2022/10/10 10:56:40;;;;;;;20.00;3.28;;;17.10;94.90;;;;;;5040717;28;20102;-68
2022/10/10 10:59:24;;;;;;;15.65;3.95;;;17.10;94.90;;;;;;5043929;28;20090;-68
2022/10/10 11:01:59;;;;;;;11.07;1.95;;;17.00;94.40;;;;;;5039284;28;20052;-68
2022/10/10 11:04:37;;;;;;;14.90;2.40;;;17.00;94.20;;;;;;5042215;28;20075;-68
2022/10/10 11:07:23;;;;;;;10.10;2.03;;;17.20;94.90;;;;;;5038132;28;20037;-70
2022/10/10 11:10:04;;;;;;;8.63;2.40;;;17.10;94.50;;;;;;5044961;28;20045;-68
2022/10/10 11:12:40;;;;;;;15.40;4.85;;;17.20;95.00;;;;;;5042624;28;20036;-68
2022/10/10 11:15:09;;;;;;;;;;;17.20;94.70;;;;;;5041652;28;20049;-69
2022/10/10 11:17:59;;;;;;;22.92;3.08;;;17.20;94.50;;;;;;5041023;28;20313;-68
2022/10/10 11:21:01;;;;;;;13.05;3.15;;;17.40;95.00;;;;;;5043139;28;20753;-68
2022/10/10 11:23:32;;;;;;;14.55;3.10;;;17.40;93.60;;;;;;5034971;28;20090;-68
2022/10/10 11:26:30;;;;;;;16.15;2.05;;;17.50;94.00;;;;;;5041684;28;20049;-69
2022/10/10 11:29:20;;;;;;;19.25;2.75;;;17.50;93.90;;;;;;5039389;28;20037;-69
2022/10/10 11:32:01;;;;;;;27.05;3.63;;;17.80;93.20;;;;;;5040632;28;20112;-69
2022/10/10 11:34:40;;;;;;;15.80;2.88;;;17.80;94.00;;;;;;5042575;28;20051;-68
2022/10/10 11:37:15;;;;;;;8.07;2.85;;;17.80;94.00;;;;;;5041879;28;20047;-69
2022/10/10 11:39:53;;;;;;;10.07;2.67;;;17.80;93.90;;;;;;5039599;28;20045;-68
2022/10/10 11:42:27;;;;;;;12.30;2.85;;;17.70;93.20;;;;;;5040033;28;20497;-68
2022/10/10 11:45:04;;;;;;;16.63;3.15;;;17.80;93.00;;;;;;5043017;28;20041;-68
2022/10/10 11:47:54;;;;;;;13.95;2.65;;;17.70;91.00;;;;;;5041619;28;20045;-70
2022/10/10 11:50:26;;;;;;;17.92;2.95;;;17.70;91.80;;;;;;5039385;28;20822;-68
2022/10/10 11:53:04;;;;;;;11.80;2.40;;;17.70;91.10;;;;;;5043505;28;20531;-68
2022/10/10 11:55:56;;;;;;;21.48;2.70;;;17.90;90.60;;;;;;5041667;28;20042;-65
2022/10/10 11:58:28;;;;;;;15.27;2.42;;;17.90;90.00;;;;;;5041096;28;20907;-65
2022/10/10 12:01:03;;;;;;;14.23;2.55;;;17.90;89.70;;;;;;5039254;28;20175;-66
2022/10/10 12:03:28;;;;;;;12.23;2.22;;;17.90;89.60;;;;;;5041191;28;20045;-65
2022/10/10 12:05:58;;;;;;;;;;;17.80;89.50;;;;;;5039177;28;20395;-66
2022/10/10 12:08:34;;;;;;;22.00;2.28;;;17.80;90.30;;;;;;5041963;28;19917;-65
2022/10/10 12:11:05;;;;;;;12.23;2.67;;;17.90;90.60;;;;;;5040995;28;20037;-66
2022/10/10 12:13:35;;;;;;;20.88;2.22;;;17.90;90.20;;;;;;5041159;28;20049;-65
2022/10/10 12:16:08;;;;;;;9.43;1.45;;;17.90;84.00;;;;;;5044223;28;20045;-66
2022/10/10 12:19:00;;;;;;;12.70;2.25;;;17.90;86.20;;;;;;5046439;28;20041;-67
2022/10/10 12:21:29;;;;;;;5.35;1.63;;;18.10;85.40;;;;;;5043089;28;20060;-67
2022/10/10 12:24:00;;;;;;;6.32;2.20;;;18.00;82.90;;;;;;5047051;28;20119;-66
2022/10/10 12:26:55;;;;;;;7.95;2.08;;;17.90;81.80;;;;;;5045262;28;20051;-67
2022/10/10 12:29:44;;;;;;;11.45;1.63;;;17.80;82.30;;;;;;5044739;28;20040;-66
2022/10/10 12:32:13;;;;;;;5.47;1.10;;;17.80;81.90;;;;;;5043308;28;20044;-67
2022/10/10 12:34:48;;;;;;;6.53;1.45;;;17.60;81.20;;;;;;5045163;28;20044;-68
2022/10/10 12:37:34;;;;;;;8.02;2.20;;;17.60;83.50;;;;;;5045029;28;20432;-67
2022/10/10 12:40:05;;;;;;;6.03;1.75;;;17.60;83.80;;;;;;5045807;28;20033;-67
2022/10/10 12:42:44;;;;;;;10.25;1.90;;;17.40;84.50;;;;;;5044841;28;20163;-66
2022/10/10 12:45:28;;;;;;;6.53;1.83;;;17.30;85.30;;;;;;5046791;28;20131;-68
2022/10/10 12:47:59;;;;;;;5.50;1.48;;;17.30;85.10;;;;;;5045873;28;20069;-67
2022/10/10 12:50:27;;;;;;;7.53;1.38;;;17.40;87.40;;;;;;5043444;28;20037;-67
2022/10/10 12:53:00;;;;;;;3.85;1.30;;;17.40;87.00;;;;;;5045470;28;20576;-67
2022/10/10 12:55:31;;;;;;;4.47;1.50;;;17.50;88.00;;;;;;5044125;28;20178;-67
2022/10/10 12:58:00;;;;;;;6.40;1.58;;;17.50;87.00;;;;;;5045378;28;20132;-66
2022/10/10 13:00:35;;;;;;;5.72;1.50;;;17.50;89.20;;;;;;5040811;28;20699;-67
2022/10/10 13:03:08;;;;;;;10.48;1.60;;;17.40;86.60;;;;;;5039999;28;20052;-66
2022/10/10 13:05:39;;;;;;;6.40;1.52;;;17.40;88.30;;;;;;5039598;28;20434;-67
2022/10/10 13:08:11;;;;;;;5.78;1.60;;;17.30;87.80;;;;;;5040229;28;20402;-67
2022/10/10 13:10:37;;;;;;;3.72;1.50;;;17.40;88.90;;;;;;5043973;28;20041;-68
2022/10/10 13:13:12;;;;;;;;;;;17.40;89.30;;;;;;5037272;28;20978;-68
2022/10/10 13:15:37;;;;;;;3.95;1.40;;;17.20;88.20;;;;;;5034779;28;20086;-69
2022/10/10 13:18:03;;;;;;;;;;;17.20;88.90;;;;;;5077211;28;20064;-68
2022/10/10 13:20:36;;;;;;;8.18;1.42;;;17.20;89.00;;;;;;5038652;28;19921;-67
2022/10/10 13:23:05;;;;;;;4.10;1.70;;;17.20;90.00;;;;;;5044119;28;20052;-67
2022/10/10 13:25:33;;;;;;;5.78;1.50;;;17.20;89.30;;;;;;5043726;28;20045;-67
2022/10/10 13:27:59;;;;;;;17.77;2.53;;;17.20;88.50;;;;;;5044613;28;20509;-67
2022/10/10 13:30:25;;;;;;;3.85;1.13;;;17.10;89.20;;;;;;5043805;28;20048;-68